Time;durP1;ratioP1;P1;durP2;ratioP2;P2;SDS_P1;SDS_P2;PMS_P1;PMS_P2;Temp;Humidity;BMP_temperature;BMP_pressure;BME280_temperature;BME280_humidity;BME280_pressure;Samples;Min_cycle;Max_cycle;Signal;HPM_P1;HPM_P2
2023/12/14 00:00:34;;;;;;;8.63;7.72;;;;;;;7.38;100.00;100187.53;6056887;23;20090;-72
2023/12/14 00:03:02;;;;;;;8.23;7.22;;;;;;;7.38;100.00;100190.13;6053229;23;20355;-72
2023/12/14 00:05:29;;;;;;;9.95;8.85;;;;;;;7.09;100.00;100154.13;6050900;23;20049;-74
2023/12/14 00:08:06;;;;;;;11.60;8.13;;;;;;;6.94;100.00;100133.03;6083802;23;20128;-73
2023/12/14 00:10:41;;;;;;;16.17;8.10;;;;;;;6.86;100.00;100131.72;6049957;23;20029;-73
2023/12/14 00:13:08;;;;;;;9.93;8.10;;;;;;;7.39;100.00;100222.31;6076370;23;20961;-72
2023/12/14 00:15:34;;;;;;;8.25;7.47;;;;;;;7.36;100.00;100212.84;6052952;23;20034;-72
2023/12/14 00:18:01;;;;;;;13.30;8.13;;;;;;;7.29;100.00;100211.44;6052313;23;20103;-72
2023/12/14 00:20:28;;;;;;;8.68;7.80;;;;;;;7.48;100.00;100232.31;6050234;23;20018;-71
2023/12/14 00:22:54;;;;;;;19.00;9.35;;;;;;;7.38;100.00;100212.78;6078015;23;20037;-72
2023/12/14 00:25:21;;;;;;;15.13;11.05;;;;;;;7.53;100.00;100232.09;6048438;23;20643;-72
2023/12/14 00:27:47;;;;;;;11.50;8.98;;;;;;;7.59;100.00;100242.25;6077640;23;20018;-71
2023/12/14 00:30:14;;;;;;;14.60;8.35;;;;;;;7.59;100.00;100248.31;6053351;23;20046;-72
2023/12/14 00:32:40;;;;;;;14.38;8.95;;;;;;;7.51;100.00;100247.84;6085870;23;20085;-71
2023/12/14 00:35:07;;;;;;;15.82;10.18;;;;;;;6.93;100.00;100157.41;6055851;23;20772;-71
2023/12/14 00:37:43;;;;;;;10.73;9.45;;;;;;;7.32;100.00;100242.63;6079236;23;20034;-71
2023/12/14 00:40:12;;;;;;;14.93;8.40;;;;;;;7.57;100.00;100276.28;6035488;23;20029;-73
2023/12/14 00:42:39;;;;;;;8.38;7.10;;;;;;;7.59;100.00;100276.19;6079627;23;20112;-72
2023/12/14 00:45:08;;;;;;;16.50;8.45;;;;;;;6.29;100.00;100069.91;6034114;23;20089;-70
2023/12/14 00:47:35;;;;;;;8.13;7.30;;;;;;;7.59;100.00;100286.66;6082872;23;20005;-70
2023/12/14 00:50:02;;;;;;;14.52;8.88;;;;;;;7.59;100.00;100297.09;6032684;23;20035;-70
2023/12/14 00:52:30;;;;;;;14.60;9.32;;;;;;;7.46;100.00;100289.00;6085839;23;20006;-70
2023/12/14 00:54:59;;;;;;;9.75;8.90;;;;;;;6.72;100.00;100172.28;6056173;23;20254;-72
2023/12/14 00:57:25;;;;;;;13.88;9.27;;;;;;;7.51;100.00;100302.66;6079203;23;20026;-72
2023/12/14 00:59:52;;;;;;;12.73;8.13;;;;;;;7.18;100.00;100247.66;6054865;23;20356;-73
2023/12/14 01:02:18;;;;;;;9.32;8.45;;;;;;;7.56;100.00;100310.31;6080072;23;20038;-71
2023/12/14 01:04:45;;;;;;;9.10;7.43;;;;;;;7.58;100.00;100321.53;6056277;23;20088;-73
2023/12/14 01:07:11;;;;;;;10.05;8.95;;;;;;;7.56;100.00;100325.97;6077679;23;20075;-72
2023/12/14 01:09:38;;;;;;;10.50;8.20;;;;;;;7.67;100.00;100336.75;6055774;23;20544;-70
2023/12/14 01:12:05;;;;;;;14.15;10.98;;;;;;;7.70;100.00;100341.03;6077790;23;20089;-69
2023/12/14 01:14:31;;;;;;;16.73;10.00;;;;;;;7.65;100.00;100342.97;6030837;23;20752;-72
2023/12/14 01:16:57;;;;;;;17.38;10.90;;;;;;;7.33;100.00;100293.91;6080313;23;20488;-73
2023/12/14 01:19:25;;;;;;;12.02;10.23;;;;;;;6.90;100.00;100232.38;6047536;23;20022;-71
2023/12/14 01:21:52;;;;;;;22.02;12.70;;;;;;;7.07;100.00;100268.97;6079877;23;20781;-71
2023/12/14 01:24:18;;;;;;;25.20;10.40;;;;;;;7.19;100.00;100309.34;6052857;23;20025;-74
2023/12/14 01:26:44;;;;;;;11.95;10.25;;;;;;;7.60;100.00;100361.47;6083688;23;20408;-69
2023/12/14 01:29:11;;;;;;;18.02;9.85;;;;;;;7.59;100.00;100362.38;6051059;23;20026;-71
2023/12/14 01:31:38;;;;;;;13.25;9.23;;;;;;;7.65;100.00;100369.09;6072829;23;20744;-70
2023/12/14 01:34:04;;;;;;;11.60;9.75;;;;;;;7.62;100.00;100380.53;6055971;23;20046;-72
2023/12/14 01:36:30;;;;;;;14.55;9.73;;;;;;;7.67;100.00;100382.94;6077368;23;20041;-70
2023/12/14 01:38:57;;;;;;;16.35;10.18;;;;;;;7.44;100.00;100353.50;6055095;23;20024;-71
2023/12/14 01:41:23;;;;;;;15.77;11.57;;;;;;;7.74;100.00;100410.50;6075967;23;20484;-70
2023/12/14 01:43:50;;;;;;;9.63;8.35;;;;;;;7.75;100.00;100410.41;6054918;23;20101;-70
2023/12/14 01:46:16;;;;;;;21.85;11.05;;;;;;;7.62;100.00;100418.84;6073246;23;20002;-70
2023/12/14 01:48:43;;;;;;;14.57;10.50;;;;;;;7.57;100.00;100419.91;6050449;23;20037;-71
2023/12/14 01:51:09;;;;;;;20.25;9.52;;;;;;;7.45;100.00;100410.00;6083379;23;20087;-70
2023/12/14 01:53:36;;;;;;;10.32;8.68;;;;;;;7.53;100.00;100441.84;6046975;23;20077;-72
2023/12/14 01:56:02;;;;;;;16.75;10.95;;;;;;;7.41;100.00;100436.31;6083180;23;20510;-70
2023/12/14 01:58:29;;;;;;;12.25;9.43;;;;;;;7.36;100.00;100445.19;6052375;23;20145;-70
2023/12/14 02:01:03;;;;;;;16.02;9.45;;;;;;;7.33;100.00;100455.75;6074905;23;20046;-72
2023/12/14 02:03:29;;;;;;;13.60;10.23;;;;;;;7.33;100.00;100462.75;6050544;23;20654;-71
2023/12/14 02:05:57;;;;;;;23.25;8.48;;;;;;;6.64;100.00;100356.91;6080981;23;20225;-72
2023/12/14 02:08:24;;;;;;;11.35;7.35;;;;;;;7.24;100.00;100473.59;6051124;23;20026;-70
2023/12/14 02:10:51;;;;;;;18.65;10.23;;;;;;;7.16;100.00;100469.53;6081363;23;20048;-72
2023/12/14 02:13:18;;;;;;;11.43;10.32;;;;;;;6.53;100.00;100374.75;6046250;23;20026;-70
2023/12/14 02:15:44;;;;;;;11.65;8.00;;;;;;;6.86;100.00;100439.50;6081859;23;20030;-69
2023/12/14 02:18:10;;;;;;;12.27;6.22;;;;;;;7.09;100.00;100480.28;6047076;23;20034;-69
2023/12/14 02:20:37;;;;;;;15.68;8.02;;;;;;;6.68;100.00;100421.06;6082223;23;20101;-71
2023/12/14 02:23:06;;;;;;;8.70;7.75;;;;;;;7.08;100.00;100482.03;6053558;23;20073;-70
2023/12/14 02:25:33;;;;;;;12.07;6.88;;;;;;;6.96;100.00;100472.97;6077377;23;20025;-69
2023/12/14 02:27:59;;;;;;;10.95;8.90;;;;;;;6.99;100.00;100480.66;6055997;23;20042;-69
2023/12/14 02:30:26;;;;;;;9.27;7.22;;;;;;;6.99;100.00;100490.25;6076917;23;20110;-70
2023/12/14 02:32:52;;;;;;;9.95;8.00;;;;;;;6.61;100.00;100448.28;6053635;23;20026;-70
2023/12/14 02:35:19;;;;;;;18.50;11.32;;;;;;;6.59;100.00;100447.50;6074895;23;20018;-70
2023/12/14 02:37:45;;;;;;;12.25;8.38;;;;;;;6.50;100.00;100427.03;6055489;23;20082;-72
2023/12/14 02:40:13;;;;;;;13.35;8.27;;;;;;;6.36;100.00;100422.34;6080288;23;20152;-70
2023/12/14 02:42:39;;;;;;;17.02;9.20;;;;;;;6.64;100.00;100469.03;6048763;23;20042;-70
2023/12/14 02:45:07;;;;;;;10.27;8.82;;;;;;;6.99;100.00;100518.94;6072441;23;20062;-71
2023/12/14 02:47:34;;;;;;;10.73;7.63;;;;;;;6.90;100.00;100516.72;6049052;23;20021;-72
2023/12/14 02:50:00;;;;;;;10.40;9.43;;;;;;;6.84;100.00;100524.78;6080216;23;20010;-70
2023/12/14 02:52:27;;;;;;;8.05;6.95;;;;;;;6.73;100.00;100514.75;6034255;23;20766;-70
2023/12/14 02:54:53;;;;;;;7.82;7.13;;;;;;;6.37;100.00;100469.22;6059217;23;20093;-71
2023/12/14 02:57:20;;;;;;;9.65;8.73;;;;;;;6.67;100.00;100510.63;6043834;23;20034;-69
2023/12/14 02:59:46;;;;;;;7.30;6.57;;;;;;;6.71;100.00;100513.97;6076162;23;20017;-70
2023/12/14 03:02:13;;;;;;;7.53;6.82;;;;;;;6.51;100.00;100493.88;6053778;23;20014;-71
2023/12/14 03:04:42;;;;;;;5.82;5.32;;;;;;;6.67;100.00;100518.44;6079349;23;20026;-70
2023/12/14 03:07:09;;;;;;;7.60;6.90;;;;;;;6.59;100.00;100515.28;6052343;23;20026;-71
2023/12/14 03:09:38;;;;;;;7.32;6.63;;;;;;;6.02;100.00;100409.78;6053486;23;20126;-70
2023/12/14 03:12:05;;;;;;;10.73;7.35;;;;;;;6.33;100.00;100482.41;6050251;23;20258;-70
2023/12/14 03:14:33;;;;;;;8.13;7.43;;;;;;;6.62;100.00;100525.63;6061216;23;20026;-71
2023/12/14 03:17:00;;;;;;;7.82;6.82;;;;;;;6.61;100.00;100510.88;6051121;23;20032;-70
2023/12/14 03:19:26;;;;;;;9.60;8.80;;;;;;;6.32;100.00;100473.75;6075232;23;20381;-71
2023/12/14 03:21:53;;;;;;;10.48;7.22;;;;;;;6.62;100.00;100519.56;6031374;23;20105;-71
2023/12/14 03:24:19;;;;;;;15.95;8.43;;;;;;;6.58;100.00;100529.25;6082438;23;20032;-71
2023/12/14 03:26:46;;;;;;;10.80;9.73;;;;;;;6.57;100.00;100524.94;6052875;23;20809;-70
2023/12/14 03:29:12;;;;;;;10.18;9.27;;;;;;;6.50;100.00;100533.91;6069076;23;20030;-70
2023/12/14 03:31:40;;;;;;;16.67;10.27;;;;;;;5.55;100.00;100406.25;6030780;23;20113;-70
2023/12/14 03:34:06;;;;;;;9.88;8.27;;;;;;;6.50;100.00;100545.19;6080660;23;20038;-70
2023/12/14 03:36:33;;;;;;;19.98;10.57;;;;;;;6.45;100.00;100548.88;6045269;23;21364;-72
2023/12/14 03:38:59;;;;;;;19.15;13.45;;;;;;;6.04;100.00;100512.16;6081054;23;20105;-71
2023/12/14 03:41:25;;;;;;;13.10;10.85;;;;;;;5.62;100.00;100434.66;6042291;23;20729;-71
2023/12/14 03:43:52;;;;;;;12.18;8.43;;;;;;;5.88;100.00;100481.41;6075061;23;20090;-72
2023/12/14 03:46:18;;;;;;;8.48;7.55;;;;;;;6.30;100.00;100560.72;6048272;23;20041;-71
2023/12/14 03:48:45;;;;;;;14.45;9.10;;;;;;;6.32;100.00;100570.16;6073759;23;20610;-70
2023/12/14 03:51:11;;;;;;;12.45;9.40;;;;;;;6.37;100.00;100567.38;6050057;23;20026;-72
2023/12/14 03:53:37;;;;;;;27.20;9.90;;;;;;;5.99;100.00;100518.38;6064260;23;20086;-72
2023/12/14 03:56:04;;;;;;;18.75;12.27;;;;;;;6.14;100.00;100544.78;6030382;23;20045;-69
2023/12/14 03:58:30;;;;;;;15.93;9.32;;;;;;;6.39;100.00;100576.88;6046302;23;20050;-72
2023/12/14 04:00:57;;;;;;;22.27;11.48;;;;;;;6.35;100.00;100582.22;6046921;23;20114;-70
2023/12/14 04:03:23;;;;;;;12.77;10.27;;;;;;;5.89;100.00;100534.34;6075210;23;20590;-70
2023/12/14 04:05:50;;;;;;;12.85;10.75;;;;;;;5.98;100.00;100547.94;6050662;23;20026;-71
2023/12/14 04:08:17;;;;;;;14.50;9.93;;;;;;;6.19;100.00;100595.84;6084492;23;20033;-70
2023/12/14 04:10:43;;;;;;;15.50;9.50;;;;;;;6.32;100.00;100611.88;6057241;23;20127;-70
2023/12/14 04:13:10;;;;;;;9.95;8.40;;;;;;;6.27;100.00;100608.56;6078893;23;20461;-70
2023/12/14 04:15:36;;;;;;;10.73;6.88;;;;;;;6.26;100.00;100603.44;6031285;23;20378;-72
2023/12/14 04:18:03;;;;;;;12.95;11.70;;;;;;;5.64;100.00;100500.53;6080900;23;20089;-70
2023/12/14 04:20:30;;;;;;;12.32;10.10;;;;;;;6.22;100.00;100605.28;6055405;23;20068;-70
2023/12/14 04:22:56;;;;;;;12.35;9.20;;;;;;;6.03;100.00;100549.53;6082085;23;20045;-72
2023/12/14 04:25:23;;;;;;;12.18;10.23;;;;;;;6.09;100.00;100584.00;6050726;23;20246;-71
2023/12/14 04:27:49;;;;;;;12.70;9.60;;;;;;;6.14;100.00;100600.34;6081246;23;20026;-70
2023/12/14 04:30:16;;;;;;;11.60;9.93;;;;;;;6.15;100.00;100601.19;6053097;23;20022;-71
2023/12/14 04:32:42;;;;;;;12.07;8.35;;;;;;;6.11;100.00;100602.19;6081879;23;20104;-71
2023/12/14 04:35:09;;;;;;;17.02;8.60;;;;;;;6.03;100.00;100605.06;6052170;23;20143;-70
2023/12/14 04:37:36;;;;;;;13.93;9.70;;;;;;;6.03;100.00;100612.03;6047555;23;20500;-69
2023/12/14 04:40:03;;;;;;;13.88;11.23;;;;;;;5.96;100.00;100614.03;6085782;23;20048;-72
2023/12/14 04:42:29;;;;;;;14.32;9.23;;;;;;;5.55;100.00;100557.22;6018723;23;20053;-71
2023/12/14 04:44:56;;;;;;;18.38;10.18;;;;;;;5.98;100.00;100623.47;6083736;23;20097;-72
2023/12/14 04:47:22;;;;;;;14.40;12.20;;;;;;;5.92;100.00;100621.06;6038816;23;20023;-70
2023/12/14 04:49:48;;;;;;;16.65;11.45;;;;;;;5.92;100.00;100631.47;6080260;23;20052;-72
2023/12/14 04:52:15;;;;;;;28.27;10.35;;;;;;;5.92;100.00;100631.47;6025980;23;20094;-72
2023/12/14 04:54:42;;;;;;;9.88;8.88;;;;;;;5.45;100.00;100547.16;6079426;23;20092;-70
2023/12/14 04:57:09;;;;;;;14.95;9.77;;;;;;;5.96;100.00;100643.53;6049991;23;20035;-69
2023/12/14 04:59:35;;;;;;;15.07;8.93;;;;;;;5.70;100.00;100596.66;6070926;23;20010;-70
2023/12/14 05:02:02;;;;;;;8.98;7.93;;;;;;;6.09;100.00;100654.34;6041518;23;20006;-70
2023/12/14 05:04:28;;;;;;;12.63;7.88;;;;;;;5.84;100.00;100610.03;6081178;23;20430;-70
2023/12/14 05:06:55;;;;;;;11.05;9.32;;;;;;;6.00;100.00;100652.09;6047747;23;20485;-71
2023/12/14 05:09:21;;;;;;;18.20;11.38;;;;;;;6.03;100.00;100661.53;6073491;23;20057;-70
2023/12/14 05:11:48;;;;;;;14.32;9.45;;;;;;;6.08;100.00;100664.84;6051378;23;20109;-71
2023/12/14 05:14:14;;;;;;;8.23;7.30;;;;;;;4.60;100.00;100432.88;6084874;23;20531;-71
2023/12/14 05:16:41;;;;;;;13.95;8.68;;;;;;;6.06;100.00;100672.72;6056049;23;20015;-70
2023/12/14 05:19:07;;;;;;;11.80;7.60;;;;;;;5.85;100.00;100642.13;6077889;23;20698;-70
2023/12/14 05:21:34;;;;;;;9.15;8.43;;;;;;;5.40;100.00;100573.34;6038431;23;20260;-70
2023/12/14 05:24:00;;;;;;;9.40;8.50;;;;;;;6.02;100.00;100675.50;6073700;23;20022;-71
2023/12/14 05:26:27;;;;;;;10.60;9.35;;;;;;;4.63;100.00;100450.97;6041441;23;20363;-70
2023/12/14 05:28:53;;;;;;;9.10;7.65;;;;;;;5.95;100.00;100674.81;6077968;23;20043;-71
2023/12/14 05:31:20;;;;;;;15.77;10.85;;;;;;;5.63;100.00;100631.59;6048545;23;20681;-70
2023/12/14 05:33:46;;;;;;;17.00;7.38;;;;;;;5.75;100.00;100660.69;6073485;23;20045;-70
2023/12/14 05:36:13;;;;;;;8.25;7.32;;;;;;;4.62;100.00;100467.44;6045956;23;20100;-70
2023/12/14 05:38:40;;;;;;;10.57;9.00;;;;;;;5.68;100.00;100638.34;6080252;23;20384;-70
2023/12/14 05:41:07;;;;;;;17.77;7.50;;;;;;;5.55;100.00;100635.31;6055625;23;20081;-71
2023/12/14 05:43:33;;;;;;;11.65;9.55;;;;;;;5.55;100.00;100637.03;6072636;23;20028;-70
2023/12/14 05:46:00;;;;;;;15.82;9.45;;;;;;;5.62;100.00;100677.59;6040048;23;20119;-69
2023/12/14 05:48:28;;;;;;;17.60;9.68;;;;;;;5.79;100.00;100719.59;6061863;23;20049;-70
2023/12/14 05:50:54;;;;;;;9.50;7.53;;;;;;;5.77;100.00;100718.78;6022086;23;20039;-70
2023/12/14 05:53:21;;;;;;;14.30;11.93;;;;;;;5.80;100.00;100733.44;6056960;23;20029;-70
2023/12/14 05:55:47;;;;;;;17.27;10.07;;;;;;;5.64;100.00;100687.97;6049457;23;20023;-71
2023/12/14 05:58:14;;;;;;;10.15;9.05;;;;;;;5.93;100.00;100737.38;6067156;23;20190;-71
2023/12/14 06:00:40;;;;;;;13.73;10.73;;;;;;;5.90;100.00;100740.06;6043853;23;20106;-70
2023/12/14 06:03:07;;;;;;;19.17;10.20;;;;;;;5.91;100.00;100747.00;6074648;23;20096;-69
2023/12/14 06:05:36;;;;;;;13.10;9.63;;;;;;;5.90;100.00;100745.28;6049980;23;20046;-69
2023/12/14 06:08:02;;;;;;;14.70;8.15;;;;;;;5.00;100.00;100603.22;6079534;23;20040;-71
2023/12/14 06:10:29;;;;;;;18.10;10.00;;;;;;;5.69;100.00;100709.50;6053929;23;20026;-73
2023/12/14 06:12:56;;;;;;;12.57;9.50;;;;;;;5.42;100.00;100675.63;6059634;23;20542;-69
2023/12/14 06:15:22;;;;;;;17.90;12.27;;;;;;;5.92;100.00;100766.06;6049632;23;20097;-70
2023/12/14 06:17:49;;;;;;;13.23;8.70;;;;;;;4.99;100.00;100617.97;6079079;23;20456;-70
2023/12/14 06:20:16;;;;;;;9.65;8.68;;;;;;;5.05;100.00;100655.97;6055075;23;20044;-71
2023/12/14 06:22:43;;;;;;;11.18;7.20;;;;;;;5.97;100.00;100785.91;6055284;23;20022;-71
2023/12/14 06:25:09;;;;;;;11.20;8.35;;;;;;;5.90;100.00;100789.56;6048917;23;20362;-70
2023/12/14 06:27:36;;;;;;;10.10;9.05;;;;;;;5.88;100.00;100793.97;6078809;23;20026;-69
2023/12/14 06:30:02;;;;;;;11.00;8.30;;;;;;;5.85;100.00;100804.47;6052706;23;20390;-72
2023/12/14 06:32:29;;;;;;;10.93;6.95;;;;;;;5.36;100.00;100744.31;6069069;23;20093;-72
2023/12/14 06:34:55;;;;;;;13.73;8.93;;;;;;;5.10;100.00;100706.06;6052148;23;20072;-70
2023/12/14 06:37:22;;;;;;;14.35;9.50;;;;;;;5.80;100.00;100841.06;6061461;23;20030;-69
2023/12/14 06:39:48;;;;;;;9.63;7.15;;;;;;;4.29;100.00;100581.03;6051488;23;20038;-70
2023/12/14 06:42:15;;;;;;;15.30;9.25;;;;;;;5.71;100.00;100825.75;6066912;23;20472;-70
2023/12/14 06:44:41;;;;;;;7.25;6.57;;;;;;;5.13;100.00;100741.53;6021043;23;20215;-69
2023/12/14 06:47:08;;;;;;;11.38;8.38;;;;;;;5.36;100.00;100795.53;6061666;23;20006;-70
2023/12/14 06:49:34;;;;;;;11.50;8.52;;;;;;;5.71;100.00;100863.91;6036910;23;20045;-70
2023/12/14 06:52:00;;;;;;;11.95;9.25;;;;;;;5.73;100.00;100869.94;6081823;23;20036;-70
2023/12/14 06:54:30;;;;;;;9.27;6.45;;;;;;;5.64;100.00;100857.22;6051099;23;20030;-70
2023/12/14 06:56:56;;;;;;;15.48;8.27;;;;;;;5.61;100.00;100863.31;6061233;23;20064;-70
2023/12/14 06:59:23;;;;;;;10.15;9.23;;;;;;;5.58;100.00;100869.50;6038581;23;20442;-71
2023/12/14 07:01:49;;;;;;;12.85;7.35;;;;;;;5.13;100.00;100789.25;6076779;23;20025;-71
2023/12/14 07:04:16;;;;;;;10.65;7.55;;;;;;;5.30;100.00;100821.72;6052602;23;20146;-69
2023/12/14 07:06:43;;;;;;;12.27;7.22;;;;;;;5.54;100.00;100856.63;6053339;23;20355;-70
2023/12/14 07:09:09;;;;;;;8.27;7.53;;;;;;;5.60;100.00;100877.25;6054672;23;20065;-70
2023/12/14 07:11:36;;;;;;;11.00;6.90;;;;;;;5.59;100.00;100884.22;6077405;23;20034;-71
2023/12/14 07:14:02;;;;;;;9.70;7.28;;;;;;;5.64;100.00;100889.28;6054075;23;20030;-70
2023/12/14 07:16:29;;;;;;;8.48;6.75;;;;;;;5.19;100.00;100822.88;6081044;23;20412;-71
2023/12/14 07:18:55;;;;;;;9.63;8.38;;;;;;;5.33;100.00;100847.66;6038115;23;20068;-71
2023/12/14 07:21:22;;;;;;;16.42;7.88;;;;;;;4.87;100.00;100766.56;6065025;23;20519;-71
2023/12/14 07:23:48;;;;;;;7.10;6.40;;;;;;;5.55;100.00;100903.44;6048151;23;20187;-72
2023/12/14 07:26:15;;;;;;;6.88;6.25;;;;;;;5.64;100.00;100914.47;6070351;23;20918;-70
2023/12/14 07:28:41;;;;;;;11.02;7.32;;;;;;;5.69;100.00;100912.59;6050619;23;20032;-70
2023/12/14 07:31:08;;;;;;;16.98;8.15;;;;;;;5.66;100.00;100912.69;6076232;23;20222;-71
2023/12/14 07:33:35;;;;;;;7.57;6.95;;;;;;;5.61;100.00;100920.59;6053178;23;20238;-71
2023/12/14 07:36:02;;;;;;;7.45;6.13;;;;;;;5.60;100.00;100919.75;6049561;23;20030;-71
2023/12/14 07:38:31;;;;;;;7.40;5.80;;;;;;;5.52;100.00;100919.13;6048641;23;20022;-70
2023/12/14 07:40:57;;;;;;;7.55;6.85;;;;;;;5.56;100.00;100918.13;6072500;23;20037;-73
2023/12/14 07:43:24;;;;;;;10.65;8.90;;;;;;;4.60;100.00;100768.13;6050587;23;20022;-69
2023/12/14 07:45:50;;;;;;;8.55;5.78;;;;;;;5.16;100.00;100858.53;6084714;23;20084;-71
2023/12/14 07:48:17;;;;;;;7.57;6.70;;;;;;;5.53;100.00;100940.78;6054612;23;20022;-69
2023/12/14 07:50:44;;;;;;;8.90;7.18;;;;;;;5.58;100.00;100942.38;6085504;23;20041;-69
2023/12/14 07:53:10;;;;;;;7.68;6.57;;;;;;;5.14;100.00;100876.78;6058859;23;20026;-71
2023/12/14 07:55:37;;;;;;;7.38;6.65;;;;;;;5.57;100.00;100940.69;6087834;23;20552;-69
2023/12/14 07:58:03;;;;;;;8.45;5.03;;;;;;;5.37;100.00;100917.81;6052839;23;20025;-68
2023/12/14 08:00:32;;;;;;;6.07;5.57;;;;;;;5.45;100.00;100925.38;6077258;23;20025;-70
2023/12/14 08:02:58;;;;;;;6.75;6.25;;;;;;;5.55;100.00;100946.81;6055934;23;20036;-69
2023/12/14 08:05:25;;;;;;;8.93;8.02;;;;;;;5.54;100.00;100950.31;6080274;23;20068;-69
2023/12/14 08:07:52;;;;;;;8.07;7.07;;;;;;;5.57;100.00;100956.31;6047450;23;20093;-70
2023/12/14 08:10:19;;;;;;;9.65;6.80;;;;;;;5.00;100.00;100866.75;6079110;23;20750;-70
2023/12/14 08:12:47;;;;;;;8.63;7.38;;;;;;;5.48;100.00;100969.56;6048230;23;20015;-69
2023/12/14 08:15:14;;;;;;;10.32;7.68;;;;;;;5.39;100.00;100949.84;6067912;23;20061;-70
2023/12/14 08:17:41;;;;;;;8.23;7.40;;;;;;;5.39;100.00;100962.88;6052036;23;20042;-69
2023/12/14 08:20:08;;;;;;;6.40;5.82;;;;;;;5.43;100.00;100975.78;6070512;23;20014;-69
2023/12/14 08:22:35;;;;;;;5.85;5.32;;;;;;;5.43;100.00;100992.25;6049990;23;20165;-69
2023/12/14 08:25:03;;;;;;;7.32;6.57;;;;;;;5.48;100.00;100984.34;6074844;23;20030;-70
2023/12/14 08:27:30;;;;;;;10.05;6.60;;;;;;;5.32;100.00;100963.06;6039566;23;20046;-71
2023/12/14 08:29:56;;;;;;;7.95;6.95;;;;;;;5.51;100.00;100994.66;6080239;23;20089;-69
2023/12/14 08:32:22;;;;;;;12.30;7.32;;;;;;;5.20;100.00;100948.63;6040442;23;20347;-71
2023/12/14 08:34:49;;;;;;;9.30;7.30;;;;;;;4.55;100.00;100850.56;6048292;23;20478;-70
2023/12/14 08:37:15;;;;;;;9.50;8.65;;;;;;;5.22;100.00;100962.44;6039908;23;20022;-69
2023/12/14 08:39:42;;;;;;;8.98;7.57;;;;;;;5.34;100.00;100993.34;6063581;23;20025;-69
2023/12/14 08:42:10;;;;;;;6.72;5.85;;;;;;;5.48;100.00;101034.63;6029474;23;20091;-70
2023/12/14 08:44:41;;;;;;;7.72;6.78;;;;;;;5.43;100.00;101015.66;6060281;23;20628;-70
2023/12/14 08:47:08;;;;;;;8.60;7.72;;;;;;;5.44;100.00;101017.41;6049281;23;20022;-71
2023/12/14 08:49:35;;;;;;;6.63;6.07;;;;;;;5.36;100.00;101022.78;6077021;23;20105;-71
2023/12/14 08:52:04;;;;;;;7.80;7.10;;;;;;;5.16;100.00;101004.22;6052929;23;20046;-70
2023/12/14 08:54:30;;;;;;;7.85;7.07;;;;;;;4.68;100.00;100934.31;6070935;23;20079;-71
2023/12/14 08:56:57;;;;;;;14.80;8.18;;;;;;;4.80;100.00;100973.88;6037127;23;20247;-70
2023/12/14 08:59:23;;;;;;;8.30;7.60;;;;;;;5.20;100.00;101050.09;6074737;23;20119;-70
2023/12/14 09:01:49;;;;;;;8.45;7.65;;;;;;;5.20;100.00;101063.94;6030909;23;20469;-70
2023/12/14 09:04:16;;;;;;;9.23;8.02;;;;;;;5.16;100.00;101071.88;6074317;23;20053;-70
2023/12/14 09:06:44;;;;;;;7.32;6.70;;;;;;;5.07;100.00;101075.56;6056837;23;20030;-71
2023/12/14 09:09:13;;;;;;;7.97;6.82;;;;;;;4.99;100.00;101069.66;6075131;23;20073;-69
2023/12/14 09:11:40;;;;;;;21.85;8.77;;;;;;;5.16;100.00;101105.69;6050547;23;20022;-70
2023/12/14 09:14:07;;;;;;;9.32;7.55;;;;;;;5.24;100.00;101118.53;6074769;23;20421;-70
2023/12/14 09:16:33;;;;;;;7.80;7.13;;;;;;;5.15;100.00;101115.25;6038647;23;20011;-71
2023/12/14 09:18:59;;;;;;;8.65;6.07;;;;;;;4.71;100.00;101044.28;6075201;23;20089;-70
2023/12/14 09:21:26;;;;;;;8.48;7.65;;;;;;;5.01;100.00;101096.47;6048872;23;20026;-71
2023/12/14 09:24:06;;;;;;;7.57;6.43;;;;;;;5.22;100.00;101121.16;6056153;23;20029;-71
2023/12/14 09:26:36;;;;;;;8.57;7.78;;;;;;;5.13;100.00;101104.03;6041974;23;20018;-70
2023/12/14 09:29:02;;;;;;;9.30;6.60;;;;;;;5.17;100.00;101115.19;6067056;23;20022;-69
2023/12/14 09:31:29;;;;;;;7.43;6.93;;;;;;;5.33;100.00;101137.38;6041526;23;20781;-70
2023/12/14 09:33:56;;;;;;;8.93;7.88;;;;;;;4.97;100.00;101079.22;6070298;23;20026;-70
2023/12/14 09:36:22;;;;;;;8.80;8.07;;;;;;;5.29;100.00;101122.75;6038847;23;20034;-69
2023/12/14 09:38:49;;;;;;;6.53;5.93;;;;;;;5.04;100.00;101067.81;6061839;23;20030;-70
2023/12/14 09:41:15;;;;;;;12.43;8.57;;;;;;;5.19;100.00;101080.47;6050758;23;20463;-72
2023/12/14 09:43:43;;;;;;;9.82;6.65;;;;;;;5.29;100.00;101091.50;6064999;23;21149;-70
2023/12/14 09:46:11;;;;;;;10.57;9.07;;;;;;;5.39;100.00;101097.31;6044879;23;20834;-70
2023/12/14 09:48:39;;;;;;;7.40;6.00;;;;;;;5.29;100.00;101065.50;6060528;23;20405;-71
2023/12/14 09:51:06;;;;;;;7.93;7.22;;;;;;;5.35;100.00;101073.16;6041596;23;20027;-70
2023/12/14 09:53:32;;;;;;;8.77;7.53;;;;;;;5.23;100.00;101042.19;6074899;23;20310;-69
2023/12/14 09:55:59;;;;;;;6.95;6.28;;;;;;;5.43;100.00;101092.91;6050462;23;20410;-69
2023/12/14 09:58:25;;;;;;;9.75;7.88;;;;;;;5.48;100.00;101052.84;6049841;23;20019;-70
2023/12/14 10:00:52;;;;;;;9.02;7.70;;;;;;;5.42;100.00;101037.41;6048106;23;20018;-69
2023/12/14 10:03:25;;;;;;;8.43;7.63;;;;;;;5.55;100.00;101031.00;6050398;23;20030;-70
2023/12/14 10:05:53;;;;;;;8.38;7.53;;;;;;;5.53;100.00;101029.31;6027597;23;20085;-71
2023/12/14 10:08:21;;;;;;;8.32;6.68;;;;;;;5.53;100.00;101011.09;6062599;23;20526;-69
2023/12/14 10:10:52;;;;;;;11.05;7.15;;;;;;;5.10;100.00;100940.19;6035835;23;20126;-71
2023/12/14 10:13:20;;;;;;;8.82;8.10;;;;;;;5.63;100.00;101019.50;6063126;23;20039;-70
2023/12/14 10:15:48;;;;;;;7.18;5.65;;;;;;;5.62;100.00;100997.00;6052676;23;20025;-70
2023/12/14 10:18:23;;;;;;;6.47;5.75;;;;;;;5.54;100.00;100992.81;6076578;23;20060;-70
2023/12/14 10:20:50;;;;;;;8.65;6.75;;;;;;;5.59;100.00;101001.38;6049200;23;20022;-70
2023/12/14 10:23:17;;;;;;;8.30;7.40;;;;;;;5.30;100.00;100957.88;6072767;23;20029;-71
2023/12/14 10:25:45;;;;;;;7.55;6.88;;;;;;;5.62;100.00;101018.66;6049723;23;20034;-70
2023/12/14 10:28:15;;;;;;;15.85;6.28;;;;;;;5.62;100.00;101012.59;6066015;23;20116;-70
2023/12/14 10:30:42;;;;;;;9.20;6.80;;;;;;;5.60;100.00;101010.03;6046050;23;20085;-69
2023/12/14 10:33:09;;;;;;;6.53;5.95;;;;;;;5.40;100.00;100987.97;6066772;23;20089;-70
2023/12/14 10:35:36;;;;;;;7.68;5.70;;;;;;;5.67;100.00;101029.78;6049865;23;20006;-69
2023/12/14 10:38:04;;;;;;;10.57;6.38;;;;;;;5.13;100.00;100953.13;6073428;23;20048;-69
2023/12/14 10:40:32;;;;;;;8.00;7.22;;;;;;;5.49;100.00;101028.56;6050055;23;20038;-70
2023/12/14 10:43:00;;;;;;;8.48;6.80;;;;;;;5.54;100.00;101057.91;6059734;23;20097;-70
2023/12/14 10:45:32;;;;;;;9.15;7.90;;;;;;;5.50;100.00;101048.47;6041579;23;20105;-70
2023/12/14 10:48:00;;;;;;;8.40;7.43;;;;;;;5.34;100.00;101028.94;6078080;23;20017;-70
2023/12/14 10:50:29;;;;;;;6.25;5.63;;;;;;;5.08;100.00;100977.56;6038508;23;20304;-70
2023/12/14 10:53:00;;;;;;;6.50;5.97;;;;;;;5.23;100.00;101003.16;6069192;23;20021;-69
2023/12/14 10:55:41;;;;;;;8.50;7.60;;;;;;;5.57;100.00;101056.97;6048354;23;20022;-70
2023/12/14 10:58:09;;;;;;;7.78;7.10;;;;;;;5.41;100.00;101022.66;6077271;23;20059;-70
2023/12/14 11:00:36;;;;;;;11.00;6.65;;;;;;;5.26;100.00;100976.22;6054560;23;20077;-69
2023/12/14 11:03:05;;;;;;;8.32;5.93;;;;;;;5.15;100.00;100960.88;6076291;23;20037;-69
2023/12/14 11:05:34;;;;;;;8.60;5.60;;;;;;;5.66;100.00;101041.13;6053221;23;20029;-69
2023/12/14 11:08:09;;;;;;;7.10;6.43;;;;;;;5.69;100.00;101041.06;6072591;23;20035;-70
2023/12/14 11:10:41;;;;;;;8.98;7.15;;;;;;;5.43;100.00;101015.66;6049900;23;20024;-69
2023/12/14 11:13:11;;;;;;;14.40;7.28;;;;;;;5.58;100.00;101040.47;6073366;23;20038;-69
2023/12/14 11:15:39;;;;;;;7.07;6.35;;;;;;;5.54;100.00;101060.50;6049135;23;20033;-70
2023/12/14 11:18:09;;;;;;;10.40;7.53;;;;;;;5.55;100.00;101054.44;6079131;23;20084;-70